createdAt,value
2022-08-07T00:02:36.551Z,19.97
2022-08-07T00:03:36.865Z,19.97
2022-08-07T00:05:10.343Z,20.01
2022-08-07T00:06:51.890Z,20.04
2022-08-07T00:08:24.372Z,20.04
2022-08-07T00:10:19.326Z,20.03
2022-08-07T00:11:55.510Z,19.90
2022-08-07T00:13:27.984Z,19.77
2022-08-07T00:14:59.684Z,19.74
2022-08-07T00:16:31.456Z,19.73
2022-08-07T00:18:03.395Z,19.74
2022-08-07T00:20:02.529Z,19.70
2022-08-07T00:21:57.004Z,19.71
2022-08-07T00:23:21.438Z,19.65
2022-08-07T00:24:53.336Z,19.63
2022-08-07T00:26:49.369Z,19.61
2022-08-07T00:28:18.098Z,19.56
2022-08-07T00:29:53.736Z,19.54
2022-08-07T00:31:37.278Z,19.52
2022-08-07T00:33:10.672Z,19.48
2022-08-07T00:34:43.328Z,19.52
2022-08-07T00:36:15.032Z,19.50
2022-08-07T00:37:50.819Z,19.46
2022-08-07T00:39:22.717Z,19.43
2022-08-07T00:40:55.485Z,19.41
2022-08-07T00:42:29.975Z,19.38
2022-08-07T00:44:02.993Z,19.30
2022-08-07T00:45:34.920Z,19.21
2022-08-07T00:47:15.913Z,19.14
2022-08-07T00:49:02.992Z,19.07
2022-08-07T00:50:50.467Z,18.99
2022-08-07T00:52:24.561Z,18.96
2022-08-07T00:53:58.155Z,18.93
2022-08-07T00:56:03.301Z,18.91
2022-08-07T00:57:22.401Z,18.91
2022-08-07T00:58:55.038Z,18.89
2022-08-07T01:00:27.879Z,18.88
2022-08-07T01:02:02.112Z,18.90
2022-08-07T01:03:55.765Z,18.85
2022-08-07T01:05:27.442Z,18.82
2022-08-07T01:07:02.141Z,18.79
2022-08-07T01:08:51.437Z,18.79
2022-08-07T01:10:26.885Z,18.73
2022-08-07T01:12:27.437Z,18.75
2022-08-07T01:13:55.909Z,18.70
2022-08-07T01:16:00.681Z,18.66
2022-08-07T01:17:21.423Z,18.62
2022-08-07T01:18:55.780Z,18.59
2022-08-07T01:20:34.688Z,18.56
2022-08-07T01:22:22.754Z,18.51
2022-08-07T01:24:02.037Z,18.48
2022-08-07T01:25:54.787Z,18.43
2022-08-07T01:27:27.191Z,18.32
2022-08-07T01:29:07.070Z,18.28
2022-08-07T01:30:40.272Z,18.29
2022-08-07T01:32:14.522Z,18.35
2022-08-07T01:33:56.171Z,18.43
2022-08-07T01:35:53.685Z,18.46
2022-08-07T01:37:26.917Z,18.48
2022-08-07T01:39:09.882Z,18.51
2022-08-07T01:40:45.749Z,18.55
2022-08-07T01:42:38.354Z,18.58
2022-08-07T01:44:12.679Z,18.54
2022-08-07T01:45:46.648Z,18.51
2022-08-07T01:48:18.534Z,18.47
2022-08-07T01:49:15.475Z,18.46
2022-08-07T01:50:52.826Z,18.41
2022-08-07T01:52:31.349Z,18.40
2022-08-07T01:54:11.652Z,18.42
2022-08-07T01:55:49.210Z,18.44
2022-08-07T01:57:26.458Z,18.47
2022-08-07T01:59:05.114Z,18.49
2022-08-07T02:00:49.052Z,18.50
2022-08-07T02:03:11.409Z,18.53
2022-08-07T02:04:26.660Z,18.56
2022-08-07T02:06:08.890Z,18.58
2022-08-07T02:08:01.077Z,18.63
2022-08-07T02:09:53.166Z,18.62
2022-08-07T02:12:02.729Z,18.63
2022-08-07T02:13:47.033Z,18.61
2022-08-07T02:15:26.395Z,18.52
2022-08-07T02:17:00.014Z,18.48
2022-08-07T02:18:34.415Z,18.40
2022-08-07T02:20:19.688Z,18.38
2022-08-07T02:21:56.666Z,18.38
2022-08-07T02:23:35.847Z,18.35
2022-08-07T02:25:17.171Z,18.30
2022-08-07T02:27:01.153Z,18.15
2022-08-07T02:28:36.651Z,18.15
2022-08-07T02:30:13.605Z,18.08
2022-08-07T02:31:48.569Z,18.07
2022-08-07T02:33:22.875Z,18.04
2022-08-07T02:34:57.974Z,18.06
2022-08-07T02:36:33.794Z,18.07
2022-08-07T02:38:15.958Z,18.08
2022-08-07T02:40:29.493Z,18.07
2022-08-07T02:41:43.829Z,18.06
2022-08-07T02:43:24.240Z,18.05
2022-08-07T02:45:01.315Z,18.05
2022-08-07T02:46:54.446Z,18.04
2022-08-07T02:48:27.460Z,18.00
2022-08-07T02:50:00.921Z,18.01
2022-08-07T02:51:42.848Z,18.01
2022-08-07T02:53:31.322Z,18.04
2022-08-07T02:55:28.341Z,18.06
2022-08-07T02:57:14.379Z,18.06
2022-08-07T02:58:47.199Z,18.02
2022-08-07T03:00:20.336Z,17.99
2022-08-07T03:01:55.216Z,17.96
2022-08-07T03:03:49.479Z,17.92
2022-08-07T03:05:29.130Z,17.86
2022-08-07T03:07:10.641Z,17.84
2022-08-07T03:08:46.018Z,17.83
2022-08-07T03:10:19.670Z,17.82
2022-08-07T03:11:57.774Z,17.78
2022-08-07T03:13:39.303Z,17.74
2022-08-07T03:15:30.256Z,17.68
2022-08-07T03:17:16.305Z,17.64
2022-08-07T03:18:48.993Z,17.63
2022-08-07T03:20:22.044Z,17.64
2022-08-07T03:21:55.635Z,17.61
2022-08-07T03:23:34.157Z,17.50
2022-08-07T03:25:23.806Z,17.34
2022-08-07T03:27:03.098Z,17.15
2022-08-07T03:28:46.333Z,17.05
2022-08-07T03:30:20.473Z,16.99
2022-08-07T03:31:57.304Z,17.03
2022-08-07T03:33:32.240Z,17.11
2022-08-07T03:35:26.076Z,17.21
2022-08-07T03:36:59.882Z,17.26
2022-08-07T03:38:47.017Z,17.28
2022-08-07T03:40:19.904Z,17.30
2022-08-07T03:41:55.680Z,17.19
2022-08-07T03:43:33.492Z,17.18
2022-08-07T03:45:09.463Z,17.22
2022-08-07T03:47:14.242Z,17.23
2022-08-07T03:48:45.475Z,17.17
2022-08-07T03:50:28.965Z,17.08
2022-08-07T03:52:03.027Z,17.00
2022-08-07T03:54:02.047Z,17.02
2022-08-07T03:55:53.328Z,16.99
2022-08-07T03:59:04.763Z,16.95
2022-08-07T03:59:18.894Z,16.98
2022-08-07T04:00:59.564Z,16.97
2022-08-07T04:02:33.158Z,16.97
2022-08-07T04:04:05.718Z,16.95
2022-08-07T04:05:41.010Z,16.87
2022-08-07T04:07:22.892Z,16.81
2022-08-07T04:08:56.697Z,16.77
2022-08-07T04:10:29.492Z,16.72
2022-08-07T04:12:27.668Z,16.60
2022-08-07T04:14:33.187Z,16.45
2022-08-07T04:15:49.151Z,16.29
2022-08-07T04:17:22.848Z,16.20
2022-08-07T04:19:15.604Z,16.10
2022-08-07T04:20:54.829Z,16.05
2022-08-07T04:22:29.789Z,16.02
2022-08-07T04:24:10.363Z,15.98
2022-08-07T04:26:03.709Z,15.95
2022-08-07T04:27:46.089Z,16.00
2022-08-07T04:29:40.339Z,16.02
2022-08-07T04:31:38.487Z,16.08
2022-08-07T04:33:17.693Z,16.19
2022-08-07T04:34:53.946Z,16.33
2022-08-07T04:36:26.394Z,16.38
2022-08-07T04:38:05.545Z,16.44
2022-08-07T04:39:40.675Z,16.42
2022-08-07T04:41:20.539Z,16.38
2022-08-07T04:43:01.398Z,16.39
2022-08-07T04:44:36.799Z,16.46
2022-08-07T04:46:34.795Z,16.56
2022-08-07T04:48:23.914Z,16.65
2022-08-07T04:50:05.328Z,16.63
2022-08-07T04:51:51.077Z,16.57
2022-08-07T04:54:02.004Z,16.54
2022-08-07T04:58:16.095Z,16.63
2022-08-07T04:58:24.302Z,16.72
2022-08-07T05:00:12.728Z,16.80
2022-08-07T05:01:35.310Z,16.79
2022-08-07T05:04:00.977Z,16.72
2022-08-07T05:05:53.497Z,16.66
2022-08-07T05:07:20.477Z,16.57
2022-08-07T05:09:02.732Z,16.52
2022-08-07T05:10:47.780Z,16.48
2022-08-07T05:12:38.009Z,16.43
2022-08-07T05:14:52.379Z,16.41
2022-08-07T05:16:15.557Z,16.39
2022-08-07T05:17:55.553Z,16.43
2022-08-07T05:19:44.214Z,16.44
2022-08-07T05:21:59.228Z,16.46
2022-08-07T05:23:16.424Z,16.50
2022-08-07T05:24:51.918Z,16.52
2022-08-07T05:26:26.135Z,16.56
2022-08-07T05:28:20.085Z,16.59
2022-08-07T05:29:53.817Z,16.62
2022-08-07T05:31:35.366Z,16.68
2022-08-07T05:33:14.905Z,16.72
2022-08-07T05:34:49.644Z,16.75
2022-08-07T05:36:32.150Z,16.81
2022-08-07T05:38:10.299Z,16.83
2022-08-07T05:40:05.073Z,16.84
2022-08-07T05:42:01.619Z,16.94
2022-08-07T05:43:49.693Z,17.05
2022-08-07T05:45:28.158Z,17.15
2022-08-07T05:47:20.018Z,17.27
2022-08-07T05:48:59.036Z,17.40
2022-08-07T05:50:34.186Z,17.50
2022-08-07T05:52:06.364Z,17.57
2022-08-07T05:54:09.273Z,17.65
2022-08-07T05:56:03.132Z,17.72
2022-08-07T05:57:30.141Z,17.82
2022-08-07T05:59:12.343Z,17.89
2022-08-07T06:00:50.958Z,17.95
2022-08-07T06:02:29.039Z,18.05
2022-08-07T06:04:04.983Z,18.06
2022-08-07T06:05:48.860Z,18.11
2022-08-07T06:07:32.675Z,18.15
2022-08-07T06:09:15.170Z,18.18
2022-08-07T06:10:51.278Z,18.24
2022-08-07T06:12:31.746Z,18.31
2022-08-07T06:14:12.436Z,18.42
2022-08-07T06:15:55.503Z,18.51
2022-08-07T06:17:38.094Z,18.58
2022-08-07T06:19:17.874Z,18.65
2022-08-07T06:22:11.857Z,18.74
2022-08-07T06:23:01.812Z,18.82
2022-08-07T06:24:58.200Z,18.90
2022-08-07T06:26:33.469Z,18.98
2022-08-07T06:28:07.649Z,19.10
2022-08-07T06:29:40.325Z,19.25
2022-08-07T06:31:12.876Z,19.41
2022-08-07T06:32:46.024Z,19.54
2022-08-07T06:34:20.465Z,19.66
2022-08-07T06:36:12.103Z,19.75
2022-08-07T06:37:53.077Z,19.85
2022-08-07T06:40:18.290Z,19.92
2022-08-07T06:42:00.657Z,19.99
2022-08-07T06:43:22.271Z,20.01
2022-08-07T06:45:21.053Z,20.04
2022-08-07T06:47:12.104Z,20.07
2022-08-07T06:48:47.699Z,20.05
2022-08-07T06:50:26.869Z,20.10
2022-08-07T06:52:07.406Z,20.16
2022-08-07T06:55:30.202Z,20.21
2022-08-07T06:55:53.677Z,20.25
2022-08-07T06:57:43.533Z,20.32
2022-08-07T07:00:12.146Z,20.41
2022-08-07T07:01:18.470Z,20.52
2022-08-07T07:02:57.448Z,20.60
2022-08-07T07:04:32.833Z,20.69
2022-08-07T07:06:11.183Z,20.90
2022-08-07T07:07:59.090Z,21.02
2022-08-07T07:09:36.111Z,21.11
2022-08-07T07:11:14.453Z,21.16
2022-08-07T07:13:06.354Z,21.23
2022-08-07T07:14:49.350Z,21.28
2022-08-07T07:16:27.197Z,21.36
2022-08-07T07:18:10.072Z,21.53
2022-08-07T07:19:57.330Z,21.69
2022-08-07T07:21:40.378Z,21.76
2022-08-07T07:24:09.034Z,21.82
2022-08-07T07:26:35.623Z,21.88
2022-08-07T07:27:20.505Z,22.06
2022-08-07T07:29:40.151Z,22.24
2022-08-07T07:30:53.186Z,22.50
2022-08-07T07:32:28.125Z,22.72
2022-08-07T07:34:03.681Z,22.91
2022-08-07T07:35:43.993Z,23.06
2022-08-07T07:37:44.470Z,23.23
2022-08-07T07:39:17.822Z,23.35
2022-08-07T07:40:50.760Z,23.48
2022-08-07T07:42:25.793Z,23.61
2022-08-07T07:44:16.960Z,23.70
2022-08-07T07:46:53.934Z,23.78
2022-08-07T07:47:52.814Z,23.74
2022-08-07T07:50:35.014Z,23.70
2022-08-07T07:51:21.625Z,23.68
2022-08-07T07:52:56.427Z,23.71
2022-08-07T07:54:30.571Z,23.70
2022-08-07T07:56:07.896Z,23.64
2022-08-07T07:57:52.330Z,23.63
2022-08-07T07:59:52.498Z,23.73
2022-08-07T08:02:01.849Z,23.76
2022-08-07T08:04:06.481Z,23.86
2022-08-07T08:05:14.342Z,23.98
2022-08-07T08:06:50.739Z,24.08
2022-08-07T08:08:35.037Z,24.19
2022-08-07T08:10:10.200Z,24.28
2022-08-07T08:12:02.116Z,24.33
2022-08-07T08:13:54.348Z,24.30
2022-08-07T08:15:58.007Z,24.31
2022-08-07T08:18:17.624Z,24.22
2022-08-07T08:20:16.020Z,24.11
2022-08-07T08:21:55.420Z,24.01
2022-08-07T08:23:47.213Z,23.97
2022-08-07T08:25:42.777Z,23.89
2022-08-07T08:27:22.883Z,23.84
2022-08-07T08:28:56.993Z,23.89
2022-08-07T08:30:34.595Z,23.98
2022-08-07T08:32:18.733Z,24.10
2022-08-07T08:33:58.924Z,24.20
2022-08-07T08:35:39.089Z,24.31
2022-08-07T08:38:07.319Z,24.38
2022-08-07T08:39:15.302Z,24.48
2022-08-07T08:40:57.107Z,24.57
2022-08-07T08:42:35.357Z,24.66
2022-08-07T08:44:19.375Z,24.68
2022-08-07T08:46:08.139Z,24.73
2022-08-07T08:47:47.287Z,24.71
2022-08-07T08:49:32.729Z,24.70
2022-08-07T08:51:14.376Z,24.63
2022-08-07T08:53:02.339Z,24.60
2022-08-07T08:54:44.944Z,24.53
2022-08-07T08:56:24.684Z,24.54
2022-08-07T08:58:03.159Z,24.55
2022-08-07T08:59:48.259Z,24.64
2022-08-07T09:01:29.570Z,24.75
2022-08-07T09:03:22.163Z,24.89
2022-08-07T09:05:38.041Z,24.98
2022-08-07T09:07:16.805Z,25.09
2022-08-07T09:09:01.784Z,25.13
2022-08-07T09:10:46.946Z,25.03
2022-08-07T09:12:33.692Z,24.79
2022-08-07T09:14:13.336Z,24.68
2022-08-07T09:16:25.762Z,24.69
2022-08-07T09:17:59.562Z,24.80
2022-08-07T09:19:57.398Z,24.85
2022-08-07T09:22:10.382Z,24.97
2022-08-07T09:24:31.727Z,24.87
2022-08-07T09:25:39.397Z,24.88
2022-08-07T09:27:29.388Z,24.79
2022-08-07T09:30:04.596Z,24.73
2022-08-07T09:31:10.600Z,24.70
2022-08-07T09:33:24.325Z,24.68
2022-08-07T09:36:04.124Z,24.74
2022-08-07T09:37:03.023Z,24.79
2022-08-07T09:38:42.512Z,24.79
2022-08-07T09:40:29.909Z,24.78
2022-08-07T09:42:16.998Z,24.78
2022-08-07T09:44:06.714Z,24.77
2022-08-07T09:47:25.530Z,24.77
2022-08-07T09:48:12.049Z,24.67
2022-08-07T09:50:01.622Z,24.65
2022-08-07T09:52:16.787Z,24.66
2022-08-07T09:54:02.342Z,24.71
2022-08-07T09:56:03.631Z,24.82
2022-08-07T09:58:09.539Z,25.05
2022-08-07T10:00:02.307Z,25.22
2022-08-07T10:02:01.487Z,25.29
2022-08-07T10:04:05.879Z,25.32
2022-08-07T10:06:18.875Z,25.31
2022-08-07T10:08:09.853Z,24.97
2022-08-07T10:10:00.045Z,24.73
2022-08-07T10:12:02.474Z,24.78
2022-08-07T10:14:00.320Z,24.88
2022-08-07T10:16:02.214Z,24.95
2022-08-07T10:18:01.572Z,25.11
2022-08-07T10:19:48.890Z,25.25
2022-08-07T10:22:14.780Z,25.42
2022-08-07T10:24:05.224Z,25.34
2022-08-07T10:25:55.054Z,25.35
2022-08-07T10:27:47.612Z,25.17
2022-08-07T10:29:53.063Z,25.07
2022-08-07T10:31:56.663Z,24.74
2022-08-07T10:34:05.090Z,24.74
2022-08-07T10:35:57.482Z,24.91
2022-08-07T10:38:21.006Z,24.92
2022-08-07T10:40:05.913Z,24.76
2022-08-07T10:41:45.935Z,24.42
2022-08-07T10:43:34.278Z,24.37
2022-08-07T10:45:17.742Z,24.59
2022-08-07T10:46:59.866Z,24.60
2022-08-07T10:48:41.565Z,24.75
2022-08-07T10:50:26.454Z,24.91
2022-08-07T10:52:13.692Z,24.94
2022-08-07T10:54:00.022Z,24.97
2022-08-07T10:55:47.316Z,25.00
2022-08-07T10:57:34.628Z,25.11
2022-08-07T10:59:21.253Z,25.24
2022-08-07T11:01:01.873Z,25.32
2022-08-07T11:02:56.525Z,25.29
2022-08-07T11:04:46.244Z,25.31
2022-08-07T11:06:22.948Z,25.30
2022-08-07T11:08:11.791Z,25.29
2022-08-07T11:10:08.672Z,25.23
2022-08-07T11:11:46.125Z,25.20
2022-08-07T11:14:45.606Z,25.03
2022-08-07T11:15:31.557Z,25.03
2022-08-07T11:17:11.492Z,24.95
2022-08-07T11:18:51.694Z,25.00
2022-08-07T11:20:31.152Z,25.12
2022-08-07T11:22:18.841Z,25.14
2022-08-07T11:24:04.225Z,25.08
2022-08-07T11:25:48.006Z,25.07
2022-08-07T11:28:00.932Z,25.00
2022-08-07T11:29:41.189Z,25.02
2022-08-07T11:31:23.588Z,25.05
2022-08-07T11:33:02.970Z,25.06
2022-08-07T11:34:51.434Z,24.99
2022-08-07T11:36:37.613Z,25.00
2022-08-07T11:38:17.552Z,25.08
2022-08-07T11:40:07.474Z,25.15
2022-08-07T11:42:02.340Z,25.19
2022-08-07T11:44:11.018Z,25.23
2022-08-07T11:45:37.533Z,25.14
2022-08-07T11:47:26.120Z,25.15
2022-08-07T11:50:31.032Z,25.20
2022-08-07T11:52:03.655Z,25.15
2022-08-07T11:54:00.568Z,25.17
2022-08-07T11:56:11.991Z,25.20
2022-08-07T11:57:59.791Z,25.18
2022-08-07T12:00:12.653Z,25.13
2022-08-07T12:01:59.697Z,25.10
2022-08-07T12:03:49.992Z,25.13
2022-08-07T12:05:47.139Z,25.21
2022-08-07T12:07:27.880Z,25.32
2022-08-07T12:09:22.238Z,25.34
2022-08-07T12:11:08.093Z,25.42
2022-08-07T12:12:56.426Z,25.46
2022-08-07T12:14:35.773Z,25.53
2022-08-07T12:16:28.890Z,25.57
2022-08-07T12:18:11.458Z,25.64
2022-08-07T12:20:03.295Z,25.63
2022-08-07T12:22:36.088Z,25.65
2022-08-07T12:24:07.482Z,25.67
2022-08-07T12:26:03.053Z,25.66
2022-08-07T12:28:04.071Z,25.61
2022-08-07T12:29:51.726Z,25.48
2022-08-07T12:31:52.985Z,25.49
2022-08-07T12:33:30.848Z,25.54
2022-08-07T12:35:24.099Z,25.63
2022-08-07T12:36:59.553Z,25.80
2022-08-07T12:38:42.530Z,25.92
2022-08-07T12:40:46.301Z,26.07
2022-08-07T12:42:13.290Z,26.33
2022-08-07T12:44:01.787Z,26.60
2022-08-07T12:45:45.611Z,26.85
2022-08-07T12:47:33.039Z,27.09
2022-08-07T12:49:25.888Z,27.30
2022-08-07T12:51:12.951Z,27.27
2022-08-07T12:52:59.375Z,27.29
2022-08-07T12:54:41.294Z,27.35
2022-08-07T12:56:26.642Z,27.60
2022-08-07T12:58:02.529Z,27.83
2022-08-07T12:59:54.415Z,28.03
2022-08-07T13:01:43.212Z,28.38
2022-08-07T13:03:59.288Z,28.65
2022-08-07T13:06:03.406Z,28.95
2022-08-07T13:08:23.073Z,29.34
2022-08-07T13:10:37.664Z,29.68
2022-08-07T13:12:15.315Z,30.01
2022-08-07T13:14:02.038Z,30.21
2022-08-07T13:15:43.241Z,30.05
2022-08-07T13:17:39.711Z,29.83
2022-08-07T13:19:35.259Z,29.87
2022-08-07T13:21:37.202Z,29.93
2022-08-07T13:24:01.952Z,30.19
2022-08-07T13:25:24.077Z,30.33
2022-08-07T13:27:10.368Z,30.40
2022-08-07T13:28:50.013Z,30.48
2022-08-07T13:30:39.837Z,30.64
2022-08-07T13:32:23.771Z,30.84
2022-08-07T13:34:33.999Z,30.96
2022-08-07T13:36:17.474Z,31.26
2022-08-07T13:37:58.524Z,31.37
2022-08-07T13:40:34.165Z,31.29
2022-08-07T13:41:42.475Z,31.52
2022-08-07T13:43:21.711Z,31.61
2022-08-07T13:45:20.710Z,31.29
2022-08-07T13:46:54.232Z,31.41
2022-08-07T13:48:34.732Z,31.62
2022-08-07T13:50:33.526Z,31.81
2022-08-07T13:52:30.515Z,31.92
2022-08-07T13:54:02.005Z,32.07
2022-08-07T13:55:37.289Z,32.23
2022-08-07T13:57:24.296Z,32.07
2022-08-07T13:59:10.363Z,32.19
2022-08-07T14:00:54.196Z,32.26
2022-08-07T14:02:33.398Z,32.22
2022-08-07T14:04:14.894Z,32.37
2022-08-07T14:05:50.930Z,32.45
2022-08-07T14:07:27.741Z,32.61
2022-08-07T14:09:04.484Z,32.74
2022-08-07T14:10:42.274Z,32.70
2022-08-07T14:12:36.040Z,32.51
2022-08-07T14:14:15.641Z,32.61
2022-08-07T14:15:52.139Z,32.69
2022-08-07T14:17:51.519Z,32.88
2022-08-07T14:20:40.130Z,33.22
2022-08-07T14:22:01.145Z,33.39
2022-08-07T14:23:31.462Z,33.69
2022-08-07T14:25:17.104Z,34.00
2022-08-07T14:26:54.551Z,34.24
2022-08-07T14:28:32.044Z,34.41
2022-08-07T14:30:10.961Z,34.38
2022-08-07T14:31:56.034Z,34.15
2022-08-07T14:33:44.936Z,34.00
2022-08-07T14:35:43.190Z,34.28
2022-08-07T14:37:16.756Z,34.50
2022-08-07T14:38:50.937Z,34.56
2022-08-07T14:40:27.227Z,34.67
2022-08-07T14:42:18.580Z,34.57
2022-08-07T14:44:08.033Z,34.43
2022-08-07T14:47:37.840Z,34.87
2022-08-07T14:49:17.585Z,34.86
2022-08-07T14:51:16.259Z,34.70
2022-08-07T14:52:50.423Z,34.48
2022-08-07T14:54:34.785Z,34.27
2022-08-07T14:58:04.910Z,34.22
2022-08-07T15:00:03.240Z,34.29
2022-08-07T15:03:51.459Z,33.70
2022-08-07T15:05:24.232Z,33.53
2022-08-07T15:06:57.036Z,33.69
2022-08-07T15:10:40.511Z,34.12
2022-08-07T15:12:36.939Z,34.43
2022-08-07T15:14:20.138Z,34.59
2022-08-07T15:15:58.014Z,34.76
2022-08-07T15:17:55.485Z,34.68
2022-08-07T15:20:30.905Z,34.21
2022-08-07T15:21:58.804Z,33.75
2022-08-07T15:23:53.609Z,33.57
2022-08-07T15:25:24.229Z,33.97
2022-08-07T15:27:11.491Z,34.12
2022-08-07T15:28:55.558Z,34.33
2022-08-07T15:30:33.117Z,34.69
2022-08-07T15:32:07.749Z,34.93
2022-08-07T15:33:45.929Z,34.61
2022-08-07T15:39:12.266Z,35.10
2022-08-07T15:41:00.105Z,34.91
2022-08-07T15:42:55.021Z,34.88
2022-08-07T15:44:30.957Z,34.00
2022-08-07T15:46:31.567Z,33.86
2022-08-07T15:48:20.404Z,33.68
2022-08-07T15:50:04.397Z,33.60
2022-08-07T15:53:51.825Z,34.06
2022-08-07T15:56:02.145Z,34.16
2022-08-07T15:57:40.229Z,34.33
2022-08-07T15:59:39.594Z,34.34
2022-08-07T16:01:20.396Z,33.93
2022-08-07T16:02:55.969Z,33.56
2022-08-07T16:04:33.428Z,33.25
2022-08-07T16:06:06.899Z,33.08
2022-08-07T16:08:32.607Z,32.98
2022-08-07T16:09:45.264Z,33.03
2022-08-07T16:11:32.331Z,32.93
2022-08-07T16:14:00.191Z,32.64
2022-08-07T16:15:57.841Z,32.40
2022-08-07T16:18:01.625Z,32.13
2022-08-07T16:20:04.218Z,31.73
2022-08-07T16:22:05.138Z,31.49
2022-08-07T16:23:58.347Z,31.35
2022-08-07T16:25:52.479Z,31.21
2022-08-07T16:27:40.407Z,31.02
2022-08-07T16:30:10.799Z,30.86
2022-08-07T16:31:50.875Z,30.81
2022-08-07T16:34:07.147Z,30.61
2022-08-07T16:35:32.598Z,30.44
2022-08-07T16:38:05.694Z,30.44
2022-08-07T16:40:03.219Z,30.28
2022-08-07T16:42:01.249Z,30.17
2022-08-07T16:44:03.673Z,30.17
2022-08-07T16:47:02.991Z,30.09
2022-08-07T16:48:28.658Z,30.13
2022-08-07T16:50:35.794Z,30.12
2022-08-07T16:52:51.419Z,30.00
2022-08-07T16:54:40.357Z,29.89
2022-08-07T16:56:37.255Z,29.77
2022-08-07T16:58:20.634Z,29.70
2022-08-07T17:00:02.511Z,29.53
2022-08-07T17:01:41.391Z,29.40
2022-08-07T17:03:19.350Z,29.28
2022-08-07T17:06:26.586Z,29.14
2022-08-07T17:07:28.534Z,28.88
2022-08-07T17:10:07.833Z,28.88
2022-08-07T17:11:16.931Z,28.93
2022-08-07T17:12:53.899Z,28.94
2022-08-07T17:14:37.290Z,28.92
2022-08-07T17:16:16.949Z,28.92
2022-08-07T17:18:03.014Z,28.84
2022-08-07T17:20:02.681Z,28.79
2022-08-07T17:21:51.646Z,28.50
2022-08-07T17:23:39.966Z,28.50
2022-08-07T17:25:16.259Z,28.29
2022-08-07T17:26:56.063Z,28.32
2022-08-07T17:28:37.158Z,28.47
2022-08-07T17:30:15.158Z,28.30
2022-08-07T17:32:02.636Z,28.21
2022-08-07T17:34:10.122Z,28.10
2022-08-07T17:35:54.778Z,28.01
2022-08-07T17:38:06.476Z,27.91
2022-08-07T17:39:58.187Z,27.86
2022-08-07T17:42:04.072Z,27.96
2022-08-07T17:44:02.980Z,27.90
2022-08-07T17:45:27.842Z,27.75
2022-08-07T17:47:04.011Z,27.65
2022-08-07T17:48:55.556Z,27.56
2022-08-07T17:50:46.861Z,27.34
2022-08-07T17:52:30.580Z,27.24
2022-08-07T17:54:12.568Z,27.23
2022-08-07T17:55:56.570Z,27.08
2022-08-07T17:57:58.665Z,27.13
2022-08-07T17:59:42.155Z,27.07
2022-08-07T18:01:22.667Z,27.08
2022-08-07T18:02:57.900Z,27.09
2022-08-07T18:04:35.134Z,27.07
2022-08-07T18:06:16.705Z,26.91
2022-08-07T18:08:16.440Z,26.88
2022-08-07T18:10:05.818Z,26.92
2022-08-07T18:12:17.715Z,26.79
2022-08-07T18:13:44.860Z,26.77
2022-08-07T18:15:32.630Z,26.74
2022-08-07T18:18:36.509Z,26.63
2022-08-07T18:21:11.508Z,26.58
2022-08-07T18:21:37.404Z,26.55
2022-08-07T18:23:43.031Z,26.69
2022-08-07T18:25:39.173Z,26.71
2022-08-07T18:27:21.022Z,26.72
2022-08-07T18:30:04.566Z,26.63
2022-08-07T18:31:05.354Z,26.53
2022-08-07T18:33:10.876Z,26.56
2022-08-07T18:35:02.514Z,26.54
2022-08-07T18:36:54.073Z,26.38
2022-08-07T18:38:56.459Z,26.36
2022-08-07T18:40:42.675Z,26.34
2022-08-07T18:42:31.624Z,26.33
2022-08-07T18:44:22.708Z,26.34
2022-08-07T18:46:24.398Z,26.35
2022-08-07T18:48:00.526Z,26.29
2022-08-07T18:50:33.149Z,26.28
2022-08-07T18:52:41.062Z,26.25
2022-08-07T18:53:54.380Z,26.25
2022-08-07T18:55:42.347Z,26.27
2022-08-07T18:57:30.751Z,26.17
2022-08-07T18:59:47.310Z,26.15
2022-08-07T19:02:33.049Z,26.17
2022-08-07T19:03:35.433Z,26.04
2022-08-07T19:05:20.500Z,26.04
2022-08-07T19:06:57.917Z,26.06
2022-08-07T19:08:43.255Z,25.99
2022-08-07T19:10:22.661Z,25.93
2022-08-07T19:12:15.466Z,25.94
2022-08-07T19:13:59.319Z,25.89
2022-08-07T19:16:05.452Z,25.81
2022-08-07T19:18:03.882Z,25.78
2022-08-07T19:19:53.435Z,25.67
2022-08-07T19:21:47.466Z,25.67
2022-08-07T19:23:58.990Z,25.57
2022-08-07T19:26:25.027Z,25.57
2022-08-07T19:29:03.358Z,25.59
2022-08-07T19:31:04.382Z,25.52
2022-08-07T19:31:37.405Z,25.53
2022-08-07T19:33:18.394Z,25.52
2022-08-07T19:34:52.628Z,25.41
2022-08-07T19:36:27.803Z,25.33
2022-08-07T19:38:15.750Z,25.19
2022-08-07T19:40:01.884Z,25.06
2022-08-07T19:41:44.826Z,25.07
2022-08-07T19:43:48.592Z,25.03
2022-08-07T19:46:06.183Z,24.92
2022-08-07T19:47:27.360Z,24.90
2022-08-07T19:49:05.115Z,24.94
2022-08-07T19:50:44.189Z,24.96
2022-08-07T19:52:22.586Z,24.91
2022-08-07T19:54:32.371Z,24.90
2022-08-07T19:55:57.453Z,24.90
2022-08-07T19:58:01.820Z,24.89
2022-08-07T19:59:40.929Z,24.91
2022-08-07T20:01:15.706Z,24.92
2022-08-07T20:02:53.643Z,24.95
2022-08-07T20:04:31.868Z,24.98
2022-08-07T20:06:28.385Z,24.98
2022-08-07T20:08:04.761Z,24.88
2022-08-07T20:10:35.778Z,24.81
2022-08-07T20:12:22.487Z,24.77
2022-08-07T20:13:41.830Z,24.68
2022-08-07T20:15:22.348Z,24.66
2022-08-07T20:16:56.927Z,24.66
2022-08-07T20:18:34.489Z,24.69
2022-08-07T20:20:08.465Z,24.71
2022-08-07T20:21:47.228Z,24.67
2022-08-07T20:23:32.912Z,24.67
2022-08-07T20:25:20.382Z,24.63
2022-08-07T20:26:55.740Z,24.59
2022-08-07T20:28:30.745Z,24.59
2022-08-07T20:30:07.669Z,24.61
2022-08-07T20:31:45.026Z,24.62
2022-08-07T20:33:36.356Z,24.52
2022-08-07T20:35:16.019Z,24.44
2022-08-07T20:36:51.921Z,24.35
2022-08-07T20:38:24.432Z,24.35
2022-08-07T20:40:03.637Z,24.31
2022-08-07T20:41:38.289Z,24.33
2022-08-07T20:43:16.953Z,24.34
2022-08-07T20:44:52.846Z,24.36
2022-08-07T20:46:32.272Z,24.37
2022-08-07T20:48:06.849Z,24.32
2022-08-07T20:49:58.424Z,24.29
2022-08-07T20:51:36.093Z,24.20
2022-08-07T20:53:15.695Z,24.16
2022-08-07T20:54:53.707Z,24.16
2022-08-07T20:56:30.385Z,24.18
2022-08-07T20:58:11.797Z,24.19
2022-08-07T21:00:07.011Z,24.16
2022-08-07T21:01:54.864Z,24.11
2022-08-07T21:03:27.899Z,24.04
2022-08-07T21:05:01.723Z,24.05
2022-08-07T21:06:53.388Z,24.00
2022-08-07T21:08:38.148Z,23.95
2022-08-07T21:10:13.824Z,23.92
2022-08-07T21:11:52.792Z,23.91
2022-08-07T21:13:43.653Z,23.90
2022-08-07T21:15:23.031Z,23.84
2022-08-07T21:18:03.309Z,23.79
2022-08-07T21:19:13.857Z,23.75
2022-08-07T21:20:48.480Z,23.73
2022-08-07T21:22:31.057Z,23.71
2022-08-07T21:24:11.662Z,23.62
2022-08-07T21:26:03.074Z,23.55
2022-08-07T21:27:47.030Z,23.47
2022-08-07T21:29:23.116Z,23.37
2022-08-07T21:31:10.957Z,23.26
2022-08-07T21:32:50.306Z,23.18
2022-08-07T21:34:31.882Z,23.16
2022-08-07T21:36:11.788Z,23.12
2022-08-07T21:38:13.192Z,23.15
2022-08-07T21:39:56.418Z,23.18
2022-08-07T21:41:52.184Z,23.22
2022-08-07T21:43:55.099Z,23.26
2022-08-07T21:46:11.077Z,23.19
2022-08-07T21:47:34.634Z,23.15
2022-08-07T21:49:16.368Z,23.06
2022-08-07T21:50:52.415Z,22.97
2022-08-07T21:52:34.321Z,22.91
2022-08-07T21:54:19.477Z,22.87
2022-08-07T21:56:00.691Z,22.85
2022-08-07T21:57:52.287Z,22.89
2022-08-07T22:00:03.172Z,22.77
2022-08-07T22:02:07.173Z,22.73
2022-08-07T22:03:33.832Z,22.62
2022-08-07T22:05:21.722Z,22.54
2022-08-07T22:07:06.616Z,22.55
2022-08-07T22:08:48.858Z,22.60
2022-08-07T22:10:28.331Z,22.66
2022-08-07T22:12:11.561Z,22.66
2022-08-07T22:13:55.133Z,22.70
2022-08-07T22:16:43.244Z,22.65
2022-08-07T22:17:36.042Z,22.51
2022-08-07T22:19:18.097Z,22.43
2022-08-07T22:21:05.085Z,22.40
2022-08-07T22:22:46.807Z,22.41
2022-08-07T22:24:32.699Z,22.43
2022-08-07T22:26:13.313Z,22.46
2022-08-07T22:28:07.570Z,22.47
2022-08-07T22:29:49.765Z,22.39
2022-08-07T22:31:56.117Z,22.34
2022-08-07T22:33:52.846Z,22.26
2022-08-07T22:35:17.616Z,22.27
2022-08-07T22:37:09.414Z,22.27
2022-08-07T22:38:51.911Z,22.28
2022-08-07T22:40:28.693Z,22.27
2022-08-07T22:42:19.461Z,22.26
2022-08-07T22:43:58.309Z,22.24
2022-08-07T22:46:40.500Z,22.23
2022-08-07T22:48:31.538Z,22.19
2022-08-07T22:50:33.006Z,22.11
2022-08-07T22:52:19.574Z,22.08
2022-08-07T22:54:30.325Z,22.06
2022-08-07T22:56:08.705Z,22.02
2022-08-07T22:57:54.303Z,22.03
2022-08-07T22:59:50.217Z,21.99
2022-08-07T23:01:59.295Z,21.94
2022-08-07T23:03:57.281Z,21.82
2022-08-07T23:06:08.459Z,21.81